A- A+ FrançaisEnglishEspañol中国

Services sur Internet Soldes sur Internet Des idées de cadeaux Météo Météo aéro

La météo à : Autours de vous Carcassone-SalvazaTarbes-Lourdes-PyrénéesNimes-Courbessac Toulouse-Blagnac

La météo aéronautique pour les pilotes, la préparation du vol avec les METAR (METeorological Aerodrome Report, message d'observation des conditions météorologiques pour l'aviation) et Les TAF (Terminal Aerodrome Forecast : message de prévision à court terme des conditions météorologiques pour l'aviation). Et les autres ressources comme les VAC (Visual Approch Chart) et les NOTAM (Notice To Airman) pour préprer les vols.

Aéroport Pangnirtung (Canada) / OACI CYXP/ IATA YXP

L'altitude de l'aéroport Pangnirtung est de 23 m = 75 ft. Il est situé à proximité de Pangnirtung (Canada). La météo générale à 5 jours est disponible pour Qikiqtarjuaq situé à 173.3 km.

METAR de l'aéroport Pangnirtung - CYXP

CYXP 241500Z 12020G30KT 15SM FEW030 OVC160 07/M02 A2956 RMK SC2AS6 PRESRR SLP012

Décodage du METAR de l'aéroport Pangnirtung (CA)

METAR émis par CYXP le jeudi 24 octobre 2019 à 15:00 heure TU. Attention ce METAR est obsolète car il a été émis il y a 5 heure et 53 minutes.

La visibilité est de 24.1 km = 15 sm.

La température est de 7°C = 45 °F et le point rosée est de -2°C = 28 °F . Ce qui correspond à 53% d'humidité relative.

Le QNH est de 1001 hPa = 29.56 inHg

Vent de 20 kt = 37 km/h avec des rafales à 30 kt = 56 km/h, orienté à 120°.

Nuages : Quelques nuages à 3000 ft = 910 mètres. Couverture nuageuse soudée à 16000 ft = 4880 mètres.

RMK SC2AS6 PRESRR SLP012

TAF de l'aéroport Pangnirtung - CYXP

CYXP 311538Z 3116/3119 25006KT P6SM -RA BKN040 OVC050 TEMPO 3116/3119 3SM -RA BR BKN020 OVC030 RMK NXT FCST WILL BE ISSUED AT 011745Z

CYXP 311538Z 3116/3119 25006KT P6SM faible RA couverture nuageuse fragmentée à 040 couverture nuageuse soudée à 050 temporairement 3116/3119 3SM faible RA brume couverture nuageuse fragmentée à 020 couverture nuageuse soudée à 030 remarques NXT trombe ST WILL BE ISSUED AT 011745Z

Aéroport à proximité de Pangnirtung

Météo générale à 5 jours à Qikiqtarjuaq (173.3 km)Aéroport Broughton Island (172 km)Aéroport Iqaluit (297 km)Aéroport Lake Harbour (Kimmirut?) (417 km)Aéroport Clyde River (496 km)Aéroport Sisimiut (537 km)Aéroport Cape Dorset (547 km)

Vue aérienne de l'aéroport Pangnirtung

NOTAM de l'aéroport Pangnirtung

Les NOTAM sont fournis sans aucune garantie de leur actualité. Le pilote est le seul responsable de la vérification de sa validité avant de l'utiliser opérationnellement pour préparer un vol ou l'utiliser lors de sa navigation.

Pas de NOTAM

Sources des données